Time;durP1;ratioP1;P1;durP2;ratioP2;P2;SDS_P1;SDS_P2;PMS_P1;PMS_P2;Temp;Humidity;BMP_temperature;BMP_pressure;BME280_temperature;BME280_humidity;BME280_pressure;Samples;Min_cycle;Max_cycle;Signal;HPM_P1;HPM_P2
2022/04/12 00:00:59;;;;;;;;;;;;;;;6.94;55.41;96239.75;4886980;29;19969;-73
2022/04/12 00:03:25;;;;;;;;;;;;;;;6.90;55.61;96241.94;4889456;29;20440;-73
2022/04/12 00:05:51;;;;;;;;;;;;;;;6.88;55.56;96243.94;4897468;29;20358;-73
2022/04/12 00:08:17;;;;;;;;;;;;;;;6.85;55.70;96232.13;4888177;29;20033;-73
2022/04/12 00:10:43;;;;;;;;;;;;;;;6.84;55.90;96238.31;4888000;29;19976;-72
2022/04/12 00:13:09;;;;;;;;;;;;;;;6.81;55.72;96238.72;4890168;29;19964;-73
2022/04/12 00:15:35;;;;;;;;;;;;;;;6.78;56.16;96233.09;4888315;29;19961;-72
2022/04/12 00:20:45;;;;;;;;;;;;;;;6.71;55.52;96233.09;4890577;29;19977;-74
2022/04/12 00:23:13;;;;;;;;;;;;;;;6.69;55.98;96238.50;4890036;29;20426;-74
2022/04/12 00:25:44;;;;;;;;;;;;;;;6.66;56.12;96241.50;4888996;29;19966;-74
2022/04/12 00:28:10;;;;;;;;;;;;;;;6.63;56.48;96238.50;4887485;29;19963;-74
2022/04/12 00:30:36;;;;;;;;;;;;;;;6.61;56.54;96236.06;4892851;29;19976;-73
2022/04/12 00:33:02;;;;;;;;;;;;;;;6.59;56.58;96232.84;4891561;29;20333;-73
2022/04/12 00:35:28;;;;;;;;;;;;;;;6.57;56.83;96228.84;4887627;29;19951;-73
2022/04/12 00:37:54;;;;;;;;;;;;;;;6.55;56.84;96230.84;4886830;29;20369;-73
2022/04/12 00:40:24;;;;;;;;;;;;;;;6.52;56.80;96223.44;4887438;29;20434;-73
2022/04/12 00:42:50;;;;;;;;;;;;;;;6.50;56.96;96229.63;4886281;29;20312;-75
2022/04/12 00:45:16;;;;;;;;;;;;;;;6.48;57.32;96229.03;4892234;29;19962;-73
2022/04/12 00:47:42;;;;;;;;;;;;;;;6.47;56.96;96227.44;4891637;29;19970;-74
2022/04/12 00:50:10;;;;;;;;;;;;;;;6.46;57.18;96228.44;4890352;29;19971;-74
2022/04/12 00:52:41;;;;;;;;;;;;;;;6.45;57.18;96226.84;4889851;29;19962;-72
2022/04/12 00:55:07;;;;;;;;;;;;;;;6.43;57.63;96223.63;4888864;29;20398;-72
2022/04/12 00:57:33;;;;;;;;;;;;;;;6.42;57.23;96236.84;4883762;29;19959;-72
2022/04/12 00:59:59;;;;;;;;;;;;;;;6.41;57.10;96227.44;4890340;29;19963;-73
2022/04/12 01:02:25;;;;;;;;;;;;;;;6.38;57.78;96226.00;4871573;29;19961;-72
2022/04/12 01:04:51;;;;;;;;;;;;;;;6.35;57.58;96234.22;4892832;29;19953;-72
2022/04/12 01:07:17;;;;;;;;;;;;;;;6.34;57.64;96230.03;4888914;29;20334;-73
2022/04/12 01:09:43;;;;;;;;;;;;;;;6.32;57.83;96218.19;4888124;29;19980;-73
2022/04/12 01:12:10;;;;;;;;;;;;;;;6.29;58.18;96227.19;4884055;29;20332;-72
2022/04/12 01:14:36;;;;;;;;;;;;;;;6.25;58.04;96212.94;4889351;29;19961;-73
2022/04/12 01:17:04;;;;;;;;;;;;;;;6.23;58.54;96220.16;4889103;29;19952;-73
2022/04/12 01:19:30;;;;;;;;;;;;;;;6.22;58.00;96218.56;4888197;29;19954;-72
2022/04/12 01:22:00;;;;;;;;;;;;;;;6.22;58.23;96215.97;4889951;29;19962;-73
2022/04/12 01:24:26;;;;;;;;;;;;;;;6.20;58.13;96203.13;4892239;29;19957;-72
2022/04/12 01:26:53;;;;;;;;;;;;;;;6.19;58.12;96211.13;4878096;29;19968;-72
2022/04/12 01:29:18;;;;;;;;;;;;;;;6.16;58.29;96209.72;4882160;29;19973;-73
2022/04/12 01:31:45;;;;;;;;;;;;;;;6.13;57.61;96210.09;4893731;29;19978;-72
2022/04/12 01:34:11;;;;;;;;;;;;;;;6.11;58.44;96212.13;4886335;29;20296;-73
2022/04/12 01:36:37;;;;;;;;;;;;;;;6.10;58.80;96219.09;4891113;29;19962;-72
2022/04/12 01:39:03;;;;;;;;;;;;;;;6.07;58.89;96219.50;4890174;29;19962;-72
2022/04/12 01:41:49;;;;;;;;;;;;;;;6.05;58.60;96215.50;4876059;29;19970;-72
2022/04/12 01:44:15;;;;;;;;;;;;;;;6.01;58.69;96215.09;4894722;29;20015;-72
2022/04/12 01:46:41;;;;;;;;;;;;;;;5.98;58.77;96212.06;4888367;29;19964;-72
2022/04/12 01:49:09;;;;;;;;;;;;;;;5.94;59.08;96216.00;4894905;29;19960;-73
2022/04/12 01:51:35;;;;;;;;;;;;;;;5.89;59.25;96219.19;4890989;29;20051;-73
2022/04/12 01:54:01;;;;;;;;;;;;;;;5.85;59.30;96213.56;4886099;29;19960;-73
2022/04/12 01:56:28;;;;;;;;;;;;;;;5.80;59.44;96218.56;4890143;29;20408;-73
2022/04/12 01:58:54;;;;;;;;;;;;;;;5.77;59.53;96215.53;4891620;29;19964;-73
2022/04/12 02:01:20;;;;;;;;;;;;;;;5.73;59.67;96209.13;4891583;29;19953;-73
2022/04/12 02:03:47;;;;;;;;;;;;;;;5.70;59.65;96208.50;4890306;29;19961;-73
2022/04/12 02:06:12;;;;;;;;;;;;;;;5.67;59.75;96203.69;4830208;29;1798499;-73
2022/04/12 02:08:40;;;;;;;;;;;;;;;5.65;59.66;96216.09;4895987;29;19957;-73
2022/04/12 02:11:15;;;;;;;;;;;;;;;5.62;59.62;96207.88;4892394;29;19991;-72
2022/04/12 02:13:41;;;;;;;;;;;;;;;5.59;59.41;96203.06;4868268;29;20438;-73
2022/04/12 02:16:07;;;;;;;;;;;;;;;5.57;59.70;96210.25;4891826;29;20296;-73
2022/04/12 02:18:33;;;;;;;;;;;;;;;5.54;59.76;96211.41;4892639;29;19961;-75
2022/04/12 02:20:59;;;;;;;;;;;;;;;5.51;59.66;96206.59;4887321;29;20331;-74
2022/04/12 02:23:25;;;;;;;;;;;;;;;5.48;60.06;96212.19;4891601;29;19959;-74
2022/04/12 02:25:50;;;;;;;;;;;;;;;5.44;60.14;96209.16;4892025;29;19996;-74
2022/04/12 02:28:16;;;;;;;;;;;;;;;5.42;60.22;96207.75;4892734;29;20291;-74
2022/04/12 02:30:43;;;;;;;;;;;;;;;5.40;60.48;96212.34;4892448;29;19979;-73
2022/04/12 02:33:09;;;;;;;;;;;;;;;5.35;60.38;96201.69;4892191;29;20453;-73
2022/04/12 02:35:35;;;;;;;;;;;;;;;5.31;60.23;96208.28;4889184;29;20470;-73
2022/04/12 02:38:01;;;;;;;;;;;;;;;5.27;60.25;96206.06;4893724;29;19949;-73
2022/04/12 02:40:27;;;;;;;;;;;;;;;5.24;60.45;96201.22;4876059;29;19944;-72
2022/04/12 02:42:53;;;;;;;;;;;;;;;5.22;60.97;96205.81;4892079;29;19962;-73
2022/04/12 02:45:19;;;;;;;;;;;;;;;5.20;61.44;96213.00;4887934;29;20076;-74
2022/04/12 02:47:45;;;;;;;;;;;;;;;5.18;60.89;96206.41;4891212;29;20011;-73
2022/04/12 02:50:11;;;;;;;;;;;;;;;5.14;61.54;96203.34;4886292;29;20023;-73
2022/04/12 02:52:37;;;;;;;;;;;;;;;5.13;61.10;96208.78;4896564;29;20036;-73
2022/04/12 02:55:03;;;;;;;;;;;;;;;5.11;61.51;96197.75;4892553;29;19988;-73
2022/04/12 02:57:29;;;;;;;;;;;;;;;5.07;61.59;96207.72;4887916;29;19953;-73
2022/04/12 02:59:55;;;;;;;;;;;;;;;5.04;61.71;96197.69;4890581;29;20356;-73
2022/04/12 03:02:21;;;;;;;;;;;;;;;5.00;61.52;96205.06;4890939;29;19964;-74
2022/04/12 03:04:46;;;;;;;;;;;;;;;4.98;62.13;96203.66;4888791;29;20314;-74
2022/04/12 03:07:12;;;;;;;;;;;;;;;4.94;61.82;96198.03;4890086;29;20054;-74
2022/04/12 03:10:05;;;;;;;;;;;;;;;4.91;61.54;96197.59;4873122;29;19974;-73
2022/04/12 03:12:30;;;;;;;;;;;;;;;4.88;62.15;96201.38;4888405;29;19958;-74
2022/04/12 03:14:56;;;;;;;;;;;;;;;4.86;62.15;96198.16;4889204;29;19953;-73
2022/04/12 03:17:22;;;;;;;;;;;;;;;4.84;62.75;96194.94;4874509;29;20049;-73
2022/04/12 03:19:48;;;;;;;;;;;;;;;4.83;63.08;96196.75;4888809;29;19959;-74
2022/04/12 03:22:14;;;;;;;;;;;;;;;4.83;63.51;96199.34;4888484;29;19957;-73
2022/04/12 03:24:40;;;;;;;;;;;;;;;4.85;63.19;96192.16;4881580;29;20040;-73
2022/04/12 03:27:06;;;;;;;;;;;;;;;4.85;63.64;96186.16;4890803;29;19958;-73
2022/04/12 03:29:31;;;;;;;;;;;;;;;4.86;63.22;96179.97;4889866;29;20019;-73
2022/04/12 03:31:57;;;;;;;;;;;;;;;4.85;63.28;96179.19;4884200;29;19956;-74
2022/04/12 03:34:23;;;;;;;;;;;;;;;4.85;63.38;96183.56;4894686;29;19960;-73
2022/04/12 03:36:49;;;;;;;;;;;;;;;4.85;63.81;96188.75;4891024;29;19996;-74
2022/04/12 03:39:18;;;;;;;;;;;;;;;4.85;63.89;96191.34;4886304;29;20013;-74
2022/04/12 03:41:47;;;;;;;;;;;;;;;4.84;64.21;96184.56;4889290;29;19958;-75
2022/04/12 03:44:14;;;;;;;;;;;;;;;4.83;63.71;96183.75;4894467;29;19979;-73
2022/04/12 03:46:40;;;;;;;;;;;;;;;4.81;63.96;96177.16;4894602;29;19962;-74
2022/04/12 03:49:06;;;;;;;;;;;;;;;4.77;63.49;96181.91;4889846;29;20298;-73
2022/04/12 03:51:32;;;;;;;;;;;;;;;4.74;63.59;96181.47;4885834;29;19971;-73
2022/04/12 03:53:58;;;;;;;;;;;;;;;4.70;63.36;96180.25;4897887;29;19962;-74
2022/04/12 03:56:24;;;;;;;;;;;;;;;4.68;63.36;96190.81;4888458;29;20388;-71
2022/04/12 03:58:50;;;;;;;;;;;;;;;4.64;63.94;96187.81;4875642;29;19960;-71
2022/04/12 04:01:16;;;;;;;;;;;;;;;4.62;63.88;96188.94;4888665;29;19963;-72
2022/04/12 04:04:09;;;;;;;;;;;;;;;4.60;63.44;96178.78;4879517;29;20426;-72
2022/04/12 04:06:35;;;;;;;;;;;;;;;4.56;63.83;96180.13;4899119;29;20342;-72
2022/04/12 04:09:01;;;;;;;;;;;;;;;4.54;64.14;96181.31;4892659;29;19995;-73
2022/04/12 04:11:27;;;;;;;;;;;;;;;4.51;64.14;96181.66;4880919;29;19971;-74
2022/04/12 04:13:53;;;;;;;;;;;;;;;4.46;64.56;96183.03;4889244;29;20444;-76
2022/04/12 04:16:19;;;;;;;;;;;;;;;4.45;63.94;96180.63;4889402;29;20333;-73
2022/04/12 04:18:45;;;;;;;;;;;;;;;4.42;64.22;96186.19;4886843;29;19967;-72
2022/04/12 04:21:10;;;;;;;;;;;;;;;4.41;63.82;96185.41;4890819;29;19959;-72
2022/04/12 04:23:41;;;;;;;;;;;;;;;4.39;64.57;96184.78;4897008;29;19954;-72
2022/04/12 04:26:07;;;;;;;;;;;;;;;4.35;64.36;96183.53;4899253;29;19960;-72
2022/04/12 04:28:34;;;;;;;;;;;;;;;4.33;64.51;96187.31;4881451;29;19968;-72
2022/04/12 04:31:00;;;;;;;;;;;;;;;4.30;64.95;96182.47;4886584;29;19979;-72
2022/04/12 04:33:26;;;;;;;;;;;;;;;4.26;64.93;96177.66;4884151;29;19956;-72
2022/04/12 04:35:51;;;;;;;;;;;;;;;4.24;64.52;96174.44;4889181;29;20477;-74
2022/04/12 04:38:37;;;;;;;;;;;;;;;4.21;64.56;96176.59;4869417;29;19962;-73
2022/04/12 04:41:03;;;;;;;;;;;;;;;4.19;65.10;96181.97;4870620;29;19966;-72
2022/04/12 04:43:29;;;;;;;;;;;;;;;4.19;64.52;96184.56;4890933;29;19968;-72
2022/04/12 04:45:55;;;;;;;;;;;;;;;4.19;64.97;96187.16;4878114;29;19972;-71
2022/04/12 04:48:21;;;;;;;;;;;;;;;4.19;65.16;96184.56;4885325;29;19950;-71
2022/04/12 04:50:47;;;;;;;;;;;;;;;4.22;64.98;96185.97;4889597;29;19968;-71
2022/04/12 04:53:13;;;;;;;;;;;;;;;4.22;65.63;96189.41;4892102;29;19967;-71
2022/04/12 04:55:42;;;;;;;;;;;;;;;4.22;65.56;96183.38;4887328;29;19961;-71
2022/04/12 04:58:40;;;;;;;;;;;;;;;4.23;65.25;96179.81;4863462;29;19961;-71
2022/04/12 05:01:06;;;;;;;;;;;;;;;4.26;65.31;96179.44;4886824;29;19982;-71
2022/04/12 05:03:32;;;;;;;;;;;;;;;4.31;65.43;96182.28;4894897;29;19958;-71
2022/04/12 05:05:57;;;;;;;;;;;;;;;4.35;65.65;96178.34;4888595;29;20017;-71
2022/04/12 05:08:29;;;;;;;;;;;;;;;4.41;66.56;96184.56;4891242;29;20347;-71
2022/04/12 05:10:55;;;;;;;;;;;;;;;4.47;65.87;96182.06;4886947;29;20018;-73
2022/04/12 05:13:21;;;;;;;;;;;;;;;4.54;67.03;96183.91;4888848;29;19959;-73
2022/04/12 05:15:47;;;;;;;;;;;;;;;4.67;66.62;96179.63;4885786;29;19963;-74
2022/04/12 05:18:12;;;;;;;;;;;;;;;4.91;65.82;96185.41;4890503;29;20357;-74
2022/04/12 05:20:38;;;;;;;;;;;;;;;5.15;65.26;96175.59;4893302;29;20340;-74
2022/04/12 05:23:04;;;;;;;;;;;;;;;5.47;64.86;96171.56;4883091;29;19965;-73
2022/04/12 05:25:30;;;;;;;;;;;;;;;5.92;63.82;96171.16;4888208;29;19959;-74
2022/04/12 05:27:56;;;;;;;;;;;;;;;6.42;63.06;96161.31;4894331;29;20406;-74
2022/04/12 05:30:22;;;;;;;;;;;;;;;6.96;61.70;96155.09;4887353;29;19977;-74
2022/04/12 05:32:48;;;;;;;;;;;;;;;7.50;60.47;96140.16;4884809;29;19960;-76
2022/04/12 05:35:14;;;;;;;;;;;;;;;8.11;58.97;96141.50;4888912;29;19956;-74
2022/04/12 05:37:43;;;;;;;;;;;;;;;8.81;57.90;96132.81;4886181;29;19962;-73
2022/04/12 05:40:10;;;;;;;;;;;;;;;9.41;56.13;96129.63;4877897;29;19954;-74
2022/04/12 05:42:36;;;;;;;;;;;;;;;9.75;54.81;96134.28;4889788;29;19966;-73
2022/04/12 05:45:02;;;;;;;;;;;;;;;10.10;53.60;96132.81;4879793;29;20341;-73
2022/04/12 05:47:38;;;;;;;;;;;;;;;10.53;52.62;96123.97;4887418;29;19959;-74
2022/04/12 05:50:04;;;;;;;;;;;;;;;10.82;51.92;96132.81;4882823;29;19974;-73
2022/04/12 05:52:32;;;;;;;;;;;;;;;10.76;51.38;96139.75;4897792;29;19965;-73
2022/04/12 05:54:58;;;;;;;;;;;;;;;10.67;51.27;96135.09;4888168;29;19956;-73
2022/04/12 05:57:24;;;;;;;;;;;;;;;10.61;51.26;96141.22;4886804;29;20083;-73
2022/04/12 05:59:50;;;;;;;;;;;;;;;10.69;50.37;96143.53;4889473;29;20003;-73
2022/04/12 06:02:16;;;;;;;;;;;;;;;10.81;50.70;96131.19;4891030;29;19966;-76
2022/04/12 06:04:42;;;;;;;;;;;;;;;11.02;50.15;96132.47;4890755;29;20009;-73
2022/04/12 06:07:07;;;;;;;;;;;;;;;11.35;49.65;96126.63;4892940;29;19981;-73
2022/04/12 06:09:33;;;;;;;;;;;;;;;11.69;49.55;96126.78;4886680;29;19966;-73
2022/04/12 06:11:59;;;;;;;;;;;;;;;11.90;48.61;96119.34;4891079;29;20419;-73
2022/04/12 06:14:25;;;;;;;;;;;;;;;12.14;47.45;96109.56;4895163;29;20318;-73
2022/04/12 06:16:51;;;;;;;;;;;;;;;12.37;47.29;96116.53;4882807;29;19962;-73
2022/04/12 06:19:17;;;;;;;;;;;;;;;12.59;47.13;96114.78;4893006;29;19970;-75
2022/04/12 06:21:42;;;;;;;;;;;;;;;12.57;46.57;96113.44;4888542;29;20394;-73
2022/04/12 06:24:08;;;;;;;;;;;;;;;12.54;46.65;96119.19;4887946;29;20428;-72
2022/04/12 06:26:34;;;;;;;;;;;;;;;12.71;46.93;96117.34;4879653;29;19958;-73
2022/04/12 06:29:00;;;;;;;;;;;;;;;12.90;47.08;96117.09;4892943;29;19966;-74
2022/04/12 06:31:26;;;;;;;;;;;;;;;13.09;46.73;96122.91;4894991;29;19977;-74
2022/04/12 06:33:52;;;;;;;;;;;;;;;13.15;46.36;96119.31;4892501;29;19956;-73
2022/04/12 06:36:24;;;;;;;;;;;;;;;13.26;46.38;96123.69;4895672;29;19958;-73
2022/04/12 06:38:50;;;;;;;;;;;;;;;13.42;45.79;96127.34;4892957;29;19964;-73
2022/04/12 06:41:16;;;;;;;;;;;;;;;13.60;45.76;96129.69;4890766;29;19973;-73
2022/04/12 06:43:42;;;;;;;;;;;;;;;13.72;45.68;96134.03;4889578;29;19958;-74
2022/04/12 06:46:08;;;;;;;;;;;;;;;13.79;45.47;96138.06;4886920;29;19949;-73
2022/04/12 06:48:34;;;;;;;;;;;;;;;13.81;45.39;96140.47;4892770;29;20372;-74
2022/04/12 06:51:00;;;;;;;;;;;;;;;13.51;44.88;96140.91;4886966;29;20019;-73
2022/04/12 06:53:26;;;;;;;;;;;;;;;13.35;45.73;96137.25;4890163;29;19970;-75
2022/04/12 06:55:52;;;;;;;;;;;;;;;13.14;45.66;96138.78;4895751;29;19956;-74
2022/04/12 06:58:18;;;;;;;;;;;;;;;13.02;46.04;96143.31;4874444;29;19962;-73
2022/04/12 07:00:44;;;;;;;;;;;;;;;12.89;46.31;96133.91;4890396;29;20390;-73
2022/04/12 07:03:10;;;;;;;;;;;;;;;12.88;47.22;96148.13;4888884;29;19955;-73
2022/04/12 07:05:36;;;;;;;;;;;;;;;13.03;47.52;96144.94;4882158;29;19954;-73
2022/04/12 07:08:02;;;;;;;;;;;;;;;13.06;47.20;96144.44;4888007;29;19974;-73
2022/04/12 07:10:28;;;;;;;;;;;;;;;13.08;47.06;96143.19;4885976;29;19990;-73
2022/04/12 07:12:54;;;;;;;;;;;;;;;13.01;47.25;96147.81;4874494;29;19962;-73
2022/04/12 07:15:20;;;;;;;;;;;;;;;13.00;48.19;96154.13;4893473;29;19960;-73
2022/04/12 07:17:46;;;;;;;;;;;;;;;12.99;48.52;96155.13;4885275;29;20045;-74
2022/04/12 07:20:13;;;;;;;;;;;;;;;12.95;48.34;96151.38;4900266;29;19958;-73
2022/04/12 07:22:39;;;;;;;;;;;;;;;13.04;48.78;96157.88;4889063;29;19954;-74
2022/04/12 07:25:05;;;;;;;;;;;;;;;13.17;48.55;96152.25;4892526;29;20018;-73
2022/04/12 07:27:36;;;;;;;;;;;;;;;13.39;48.75;96157.59;4892406;29;19965;-74
2022/04/12 07:30:06;;;;;;;;;;;;;;;13.67;48.41;96158.50;4891942;29;19956;-74
2022/04/12 07:32:32;;;;;;;;;;;;;;;13.80;47.53;96152.84;4891073;29;19981;-74
2022/04/12 07:34:58;;;;;;;;;;;;;;;13.81;47.23;96140.47;4881512;29;19964;-73
2022/04/12 07:37:23;;;;;;;;;;;;;;;13.80;46.98;96144.94;4892511;29;19961;-73
2022/04/12 07:39:49;;;;;;;;;;;;;;;13.92;46.98;96142.19;4895547;29;19958;-74
2022/04/12 07:42:16;;;;;;;;;;;;;;;14.14;46.55;96142.16;4889349;29;20062;-73
2022/04/12 07:44:42;;;;;;;;;;;;;;;14.36;46.74;96149.22;4887219;29;19962;-74
2022/04/12 07:47:08;;;;;;;;;;;;;;;14.55;46.03;96141.75;4894586;29;20438;-74
2022/04/12 07:49:34;;;;;;;;;;;;;;;14.71;45.50;96134.81;4864392;29;19964;-73
2022/04/12 07:52:00;;;;;;;;;;;;;;;14.78;45.46;96140.66;4895558;29;19978;-74
2022/04/12 07:54:26;;;;;;;;;;;;;;;14.85;44.58;96132.56;4893970;29;19965;-74
2022/04/12 07:56:52;;;;;;;;;;;;;;;14.92;44.53;96135.78;4891235;29;19959;-74
2022/04/12 07:59:18;;;;;;;;;;;;;;;14.85;44.50;96136.00;4882834;29;19957;-74
2022/04/12 08:01:43;;;;;;;;;;;;;;;14.57;41.12;96129.16;4898980;29;19974;-74
2022/04/12 08:04:09;;;;;;;;;;;;;;;14.41;42.38;96144.03;4889543;29;19956;-74
2022/04/12 08:06:35;;;;;;;;;;;;;;;14.34;43.79;96149.50;4890608;29;19983;-74
2022/04/12 08:09:01;;;;;;;;;;;;;;;14.44;45.15;96155.91;4887702;29;19960;-73
2022/04/12 08:11:27;;;;;;;;;;;;;;;14.50;44.65;96153.06;4888627;29;20467;-75
2022/04/12 08:13:53;;;;;;;;;;;;;;;14.44;44.12;96142.72;4885670;29;19988;-74
2022/04/12 08:16:19;;;;;;;;;;;;;;;14.45;43.95;96145.13;4888254;29;19965;-73
2022/04/12 08:18:46;;;;;;;;;;;;;;;14.61;44.64;96154.81;4887573;29;19955;-74
2022/04/12 08:21:11;;;;;;;;;;;;;;;14.79;43.97;96137.78;4885279;29;19958;-75
2022/04/12 08:23:37;;;;;;;;;;;;;;;14.90;43.30;96133.38;4893872;29;19960;-74
2022/04/12 08:26:03;;;;;;;;;;;;;;;14.98;42.40;96135.56;4891418;29;21142;-73
2022/04/12 08:28:29;;;;;;;;;;;;;;;15.05;41.70;96123.97;4883832;29;20050;-74
2022/04/12 08:30:55;;;;;;;;;;;;;;;15.15;40.69;96122.19;4880964;29;20479;-73
2022/04/12 08:33:21;;;;;;;;;;;;;;;15.30;40.38;96118.84;4886577;29;20437;-74
2022/04/12 08:35:47;;;;;;;;;;;;;;;15.33;38.67;96114.91;4898506;29;20427;-74
2022/04/12 08:38:13;;;;;;;;;;;;;;;15.34;36.89;96114.66;4891068;29;19993;-74
2022/04/12 08:40:40;;;;;;;;;;;;;;;15.39;39.88;96121.78;4892275;29;19981;-73
2022/04/12 08:43:07;;;;;;;;;;;;;;;15.46;39.46;96126.88;4874817;29;19975;-74
2022/04/12 08:45:35;;;;;;;;;;;;;;;15.32;37.96;96116.75;4893897;29;20060;-74
2022/04/12 08:48:02;;;;;;;;;;;;;;;15.21;37.98;96117.75;4891021;29;19958;-74
2022/04/12 08:50:28;;;;;;;;;;;;;;;15.13;39.54;96128.78;4880363;29;19976;-74
2022/04/12 08:52:54;;;;;;;;;;;;;;;15.07;39.95;96129.81;4892170;29;19969;-74
2022/04/12 08:55:20;;;;;;;;;;;;;;;15.05;39.34;96129.25;4880285;29;20293;-74
2022/04/12 08:57:46;;;;;;;;;;;;;;;15.17;40.76;96138.59;4880396;29;19957;-74
2022/04/12 09:00:12;;;;;;;;;;;;;;;15.42;40.34;96127.38;4863938;29;20411;-73
2022/04/12 09:03:01;;;;;;;;;;;;;;;15.46;39.90;96132.94;4872439;29;19961;-74
2022/04/12 09:05:27;;;;;;;;;;;;;;;15.36;38.60;96123.09;4886879;29;19971;-74
2022/04/12 09:07:53;;;;;;;;;;;;;;;15.43;38.54;96117.59;4898604;29;20445;-74
2022/04/12 09:10:19;;;;;;;;;;;;;;;15.70;37.60;96117.47;4868282;29;19969;-74
2022/04/12 09:12:45;;;;;;;;;;;;;;;15.97;37.47;96119.97;4897470;29;19976;-74
2022/04/12 09:15:12;;;;;;;;;;;;;;;16.21;38.23;96122.94;4892331;29;19959;-74
2022/04/12 09:17:39;;;;;;;;;;;;;;;16.37;37.50;96115.81;4891903;29;20411;-73
2022/04/12 09:20:16;;;;;;;;;;;;;;;16.43;38.14;96117.41;4863655;29;20323;-74
2022/04/12 09:22:42;;;;;;;;;;;;;;;16.71;39.75;96120.59;4888462;29;20441;-73
2022/04/12 09:25:13;;;;;;;;;;;;;;;17.02;41.01;96129.38;4888709;29;19958;-73
2022/04/12 09:27:40;;;;;;;;;;;;;;;17.28;39.14;96118.72;4864197;29;19969;-74
2022/04/12 09:30:07;;;;;;;;;;;;;;;17.42;37.28;96097.78;4887744;29;19962;-74
2022/04/12 09:32:37;;;;;;;;;;;;;;;17.56;35.82;96098.78;4888793;29;19973;-74
2022/04/12 09:35:03;;;;;;;;;;;;;;;17.54;38.17;96111.53;4886044;29;19955;-74
2022/04/12 09:37:31;;;;;;;;;;;;;;;17.52;36.84;96104.91;4870820;29;19973;-73
2022/04/12 09:40:11;;;;;;;;;;;;;;;17.71;36.09;96095.28;4893283;29;20316;-74
2022/04/12 09:42:42;;;;;;;;;;;;;;;17.83;33.82;96092.34;4899884;29;20325;-74
2022/04/12 09:45:13;;;;;;;;;;;;;;;17.86;36.40;96105.06;4889498;29;19956;-74
2022/04/12 09:47:40;;;;;;;;;;;;;;;17.89;35.30;96095.75;4889327;29;20416;-74
2022/04/12 09:50:07;;;;;;;;;;;;;;;17.94;36.14;96104.50;4890304;29;19967;-74
2022/04/12 09:52:33;;;;;;;;;;;;;;;17.89;34.84;96099.22;4896331;29;19981;-74
2022/04/12 09:55:00;;;;;;;;;;;;;;;17.98;34.73;96099.44;4878612;29;19961;-74
2022/04/12 09:57:26;;;;;;;;;;;;;;;18.20;32.74;96099.03;4884108;29;19958;-75
2022/04/12 09:59:57;;;;;;;;;;;;;;;18.30;32.84;96096.31;4885568;29;19961;-74
2022/04/12 10:02:24;;;;;;;;;;;;;;;18.35;36.01;96101.63;4888601;29;19961;-74
2022/04/12 10:04:53;;;;;;;;;;;;;;;18.23;33.06;96104.59;4896845;29;19962;-74
2022/04/12 10:07:21;;;;;;;;;;;;;;;18.29;35.34;96104.56;4894209;29;19976;-74
2022/04/12 10:09:48;;;;;;;;;;;;;;;18.36;34.97;96103.19;4892270;29;19959;-74
2022/04/12 10:12:14;;;;;;;;;;;;;;;18.56;34.35;96101.44;4884266;29;19972;-74
2022/04/12 10:14:41;;;;;;;;;;;;;;;18.72;32.08;96094.94;4893827;29;19979;-74
2022/04/12 10:17:07;;;;;;;;;;;;;;;18.86;34.81;96095.16;4893916;29;19963;-74
2022/04/12 10:19:34;;;;;;;;;;;;;;;18.96;32.58;96087.09;4879107;29;20326;-74
2022/04/12 10:22:03;;;;;;;;;;;;;;;19.00;31.30;96076.66;4887113;29;19975;-74
2022/04/12 10:24:30;;;;;;;;;;;;;;;19.07;33.14;96087.78;4891671;29;19958;-74
2022/04/12 10:26:56;;;;;;;;;;;;;;;19.10;33.18;96089.88;4894855;29;20439;-74
2022/04/12 10:29:22;;;;;;;;;;;;;;;19.23;31.87;96080.44;4895542;29;20330;-74
2022/04/12 10:32:11;;;;;;;;;;;;;;;19.11;30.43;96074.69;4890716;29;19971;-74
2022/04/12 10:34:57;;;;;;;;;;;;;;;19.18;32.96;96075.19;4877592;29;19954;-74
2022/04/12 10:37:23;;;;;;;;;;;;;;;19.35;32.87;96077.38;4878942;29;20362;-74
2022/04/12 10:39:50;;;;;;;;;;;;;;;19.48;33.65;96082.03;4892680;29;19989;-74
2022/04/12 10:42:23;;;;;;;;;;;;;;;19.58;30.81;96067.81;4893495;29;19954;-74
2022/04/12 10:44:53;;;;;;;;;;;;;;;19.62;32.80;96064.31;4893316;29;19954;-75
2022/04/12 10:47:24;;;;;;;;;;;;;;;19.79;32.75;96065.72;4889378;29;19983;-74
2022/04/12 10:49:54;;;;;;;;;;;;;;;20.01;31.52;96052.66;4885833;29;19960;-75
2022/04/12 10:52:30;;;;;;;;;;;;;;;20.24;31.78;96052.84;4887896;29;19976;-75
2022/04/12 10:54:56;;;;;;;;;;;;;;;20.53;32.10;96044.69;4894187;29;19954;-75
2022/04/12 10:57:23;;;;;;;;;;;;;;;20.87;29.91;96039.09;4893834;29;20011;-74
2022/04/12 10:59:51;;;;;;;;;;;;;;;21.01;30.24;96038.31;4886454;29;19985;-74
2022/04/12 11:02:17;;;;;;;;;;;;;;;21.13;30.01;96030.63;4889721;29;19959;-74
2022/04/12 11:04:43;;;;;;;;;;;;;;;21.33;30.57;96034.75;4891364;29;19959;-74
2022/04/12 11:07:10;;;;;;;;;;;;;;;21.53;30.60;96036.28;4883492;29;19988;-78
2022/04/12 11:09:36;;;;;;;;;;;;;;;21.64;30.06;96037.63;4900819;29;19959;-75
2022/04/12 11:12:03;;;;;;;;;;;;;;;21.73;29.48;96027.03;4884479;29;19980;-74
2022/04/12 11:14:38;;;;;;;;;;;;;;;21.75;29.76;96024.84;4892498;29;19965;-77
2022/04/12 11:17:08;;;;;;;;;;;;;;;21.58;28.15;96030.81;4884254;29;19959;-75
2022/04/12 11:19:41;;;;;;;;;;;;;;;21.41;28.35;96031.41;4868792;29;19950;-76
2022/04/12 11:22:10;;;;;;;;;;;;;;;21.19;28.60;96028.66;4867721;29;19965;-75
2022/04/12 11:24:36;;;;;;;;;;;;;;;21.15;29.51;96025.00;4892480;29;19948;-75
2022/04/12 11:27:03;;;;;;;;;;;;;;;21.06;29.46;96025.69;4877926;29;19962;-76
2022/04/12 11:29:29;;;;;;;;;;;;;;;21.12;30.20;96023.69;4899586;29;19963;-74
2022/04/12 11:31:55;;;;;;;;;;;;;;;21.22;30.07;96025.38;4900624;29;20022;-75
2022/04/12 11:34:22;;;;;;;;;;;;;;;21.31;30.07;96025.47;4887542;29;19980;-74
2022/04/12 11:36:52;;;;;;;;;;;;;;;21.23;29.97;96027.75;4897143;29;19957;-75
2022/04/12 11:39:19;;;;;;;;;;;;;;;21.20;29.56;96020.34;4887761;29;19968;-74
2022/04/12 11:41:45;;;;;;;;;;;;;;;21.19;28.12;96010.78;4899596;29;19959;-74
2022/04/12 11:44:10;;;;;;;;;;;;;;;21.24;31.05;96017.88;4885591;29;19959;-75
2022/04/12 11:46:39;;;;;;;;;;;;;;;21.40;31.13;96023.72;4899609;29;19959;-74
2022/04/12 11:49:11;;;;;;;;;;;;;;;21.47;30.15;96029.47;4890263;29;19962;-75
2022/04/12 11:51:41;;;;;;;;;;;;;;;21.65;29.43;96020.56;4890826;29;20347;-74
2022/04/12 11:54:20;;;;;;;;;;;;;;;21.79;29.38;96011.72;4888776;29;19952;-75
2022/04/12 11:56:47;;;;;;;;;;;;;;;21.84;29.78;96015.06;4893790;29;20026;-74
2022/04/12 11:59:13;;;;;;;;;;;;;;;21.86;28.79;96010.22;4888827;29;19968;-74
2022/04/12 12:01:39;;;;;;;;;;;;;;;21.99;29.42;96013.16;4896332;29;19973;-74
2022/04/12 12:04:09;;;;;;;;;;;;;;;22.00;27.85;96001.38;4889708;29;20370;-74
2022/04/12 12:06:51;;;;;;;;;;;;;;;22.10;29.13;96003.81;4890606;29;20443;-75
2022/04/12 12:09:17;;;;;;;;;;;;;;;22.26;27.66;95999.72;4891484;29;20343;-74
2022/04/12 12:11:43;;;;;;;;;;;;;;;22.27;28.09;96001.28;4891100;29;19980;-74
2022/04/12 12:14:11;;;;;;;;;;;;;;;22.28;27.34;95999.44;4882054;29;20009;-74
2022/04/12 12:16:37;;;;;;;;;;;;;;;22.26;28.44;95996.28;4886700;29;19959;-74
2022/04/12 12:19:02;;;;;;;;;;;;;;;22.28;27.36;95997.53;4891308;29;20406;-73
2022/04/12 12:21:29;;;;;;;;;;;;;;;22.16;27.29;95993.81;4893688;29;20089;-74
2022/04/12 12:23:55;;;;;;;;;;;;;;;22.00;26.13;95996.03;4889158;29;19948;-74
2022/04/12 12:26:28;;;;;;;;;;;;;;;21.99;27.96;95997.91;4885599;29;19973;-75
2022/04/12 12:29:00;;;;;;;;;;;;;;;21.94;27.36;95992.69;4881499;29;19960;-74
2022/04/12 12:31:26;;;;;;;;;;;;;;;21.94;28.02;95995.34;4890921;29;20439;-74
2022/04/12 12:33:52;;;;;;;;;;;;;;;21.97;28.57;95996.66;4893652;29;19962;-74
2022/04/12 12:36:22;;;;;;;;;;;;;;;22.00;28.67;95993.38;4875006;29;20053;-74
2022/04/12 12:38:48;;;;;;;;;;;;;;;22.03;27.18;95980.22;4888748;29;19953;-74
2022/04/12 12:41:28;;;;;;;;;;;;;;;21.94;26.22;95984.66;4878649;29;19972;-74
2022/04/12 12:43:57;;;;;;;;;;;;;;;21.92;28.92;95996.75;4892480;29;20470;-74
2022/04/12 12:46:26;;;;;;;;;;;;;;;21.96;26.46;95976.38;4873086;29;19966;-74
2022/04/12 12:49:05;;;;;;;;;;;;;;;21.99;26.98;95987.25;4889136;29;19966;-74
2022/04/12 12:51:30;;;;;;;;;;;;;;;22.09;27.48;95975.53;4891332;29;19960;-74
2022/04/12 12:54:00;;;;;;;;;;;;;;;22.18;27.36;95979.06;4890878;29;19956;-74